Weldona, CO (80653)

3:50 AM MDT on July 31, 2014 (GMT -0600)
Fort Morgan (KFMM) Elev 4570 ft | 40.33 °N, 103.80 °W | Change Station

Current weather conditions updated 15 minutes ago

Overcast
Overcast
58 °F
Feels Like 58 °F
N
4
Wind Variable Wind from SW

Today is forecast to be Much Warmer than yesterday.

Today
High -- | Low -- °F
--% Chance of Precip.
Yesterday
High -- | Low -- °F
Precip. -- in
5:52 AM 8:11 PM
Waxing Crescent, 17% visible
Pressure 30.27 in
Visibility 2.5 miles
Clouds Overcast 11000 ft
Dew Point 56 °F
Humidity 94%
Rainfall 0.00 in
Snow Depth Not available.
UV 0 out of 12
Pollen .80 out of 12
Air Quality Not available.
Flu Activity Not available.
METAR KFMM 310935Z AUTO 22003KT 2 1/2SM OVC110 15/14 A3027 RMK AO2 T01450136 PWINO

More Conditions Fewer Conditions

Pressure 30.27 in
Visibility 2.5 miles
Clouds Overcast 11000 ft
Dew Point 56 °F
Humidity 94%
Rainfall 0.00 in
Snow Depth Not available.
UV 0 out of 12
Pollen .80 out of 12
Air Quality Not available.
Flu Activity Not available.
METAR KFMM 310935Z AUTO 22003KT 2 1/2SM OVC110 15/14 A3027 RMK AO2 T01450136 PWINO

More Conditions Fewer Conditions

10-Day Weather Forecast

Almanac

Astronomy

Jul. 31, 2014 Rise Set
Actual Time 5:52 AM MDT 8:11 PM MDT
Civil Twilight 5:22 AM MDT 8:42 PM MDT
Nautical Twilight 4:44 AM MDT 9:19 PM MDT
Astronomical Twilight 4:02 AM MDT 10:01 PM MDT
Moon 10:23 AM MDT 10:24 PM MDT
Length of Visible Light 15h 20m
Length of Day
14h 18m
Tomorrow will be 1m 59s shorter.
Waxing Crescent, 17% of the Moon is Illuminated
Today
Waxing Crescent
Aug 3
First Quarter
Aug 10
Full
Aug 17
Last Quarter
Aug 25
New

Today's Extremes

State Highs State Lows

Community

WunderPhotos

Upload Photos

1,739,284 photos uploaded!

Nearby

Snow Depth

Station Depth Elevation
Copeland Lake 0 in 8600 ft
Wild Basin 1 in 9560 ft
University Camp 0 in 10300 ft
Bear Lake 0 in 9500 ft
Willow Park 0 in 10700 ft

Earthquake Activity

City Distance Mag. Time & Date
No recent earthquake activity has been reported nearby.
Minimum magnitude displayed is 2.5.

Coastal Water Temperatures

Place Temperature
No Stations Reporting

Nearby Weather Stations

Station Location Temp. Dew Point Humidity Wind Precip. Elev Updated Type
Fort Morgan, Fort Morgan, CO 60.1 °F 60 °F 99% SSW  at  2.2 mph 0.00 in / hr 4327 ft 3:50 AM MDT Rapid Fire
8 miles S.E. of, Kersey, CO 59.2 °F 58 °F 94% ENE  at  0.0 mph 0.00 in / hr 4550 ft 3:50 AM MDT Rapid Fire

Show More Stations Show Fewer Stations